createdAt,value
2018-12-14T00:02:05.933Z,62.58
2018-12-14T00:04:39.782Z,62.51
2018-12-14T00:07:16.503Z,61.85
2018-12-14T00:09:47.983Z,61.22
2018-12-14T00:15:08.360Z,61.65
2018-12-14T00:17:37.331Z,61.72
2018-12-14T00:20:07.648Z,62.00
2018-12-14T00:22:37.431Z,62.16
2018-12-14T00:25:06.887Z,61.92
2018-12-14T00:27:36.237Z,62.31
2018-12-14T00:30:07.501Z,61.92
2018-12-14T00:32:38.480Z,62.37
2018-12-14T00:35:07.114Z,61.89
2018-12-14T00:37:38.778Z,61.57
2018-12-14T00:40:10.216Z,62.27
2018-12-14T00:42:40.983Z,62.17
2018-12-14T00:45:13.546Z,61.94
2018-12-14T00:47:42.139Z,61.99
2018-12-14T00:50:13.023Z,61.92
2018-12-14T00:52:41.889Z,62.06
2018-12-14T00:55:11.882Z,61.98
2018-12-14T00:57:46.893Z,61.94
2018-12-14T01:00:20.185Z,61.87
2018-12-14T01:02:50.172Z,61.78
2018-12-14T01:05:18.895Z,62.25
2018-12-14T01:07:47.386Z,62.51
2018-12-14T01:10:16.849Z,62.28
2018-12-14T01:12:46.089Z,62.24
2018-12-14T01:15:17.611Z,62.30
2018-12-14T01:17:52.295Z,62.70
2018-12-14T01:20:22.133Z,62.38
2018-12-14T01:22:53.521Z,62.46
2018-12-14T01:25:24.834Z,62.72
2018-12-14T01:27:56.503Z,62.70
2018-12-14T01:30:26.604Z,62.60
2018-12-14T01:32:57.247Z,63.16
2018-12-14T01:35:28.183Z,62.96
2018-12-14T01:37:59.589Z,62.81
2018-12-14T01:40:29.666Z,63.00
2018-12-14T01:42:59.888Z,62.99
2018-12-14T01:45:33.340Z,63.13
2018-12-14T01:48:05.377Z,62.51
2018-12-14T01:50:35.759Z,62.43
2018-12-14T01:53:05.357Z,62.32
2018-12-14T01:55:35.554Z,61.80
2018-12-14T01:58:05.029Z,62.26
2018-12-14T02:00:36.500Z,62.26
2018-12-14T02:03:05.564Z,62.21
2018-12-14T02:05:35.983Z,62.28
2018-12-14T02:08:05.794Z,62.87
2018-12-14T02:10:34.866Z,63.03
2018-12-14T02:13:03.738Z,63.07
2018-12-14T02:15:32.263Z,62.71
2018-12-14T02:18:00.723Z,63.19
2018-12-14T02:20:29.514Z,62.40
2018-12-14T02:22:58.246Z,62.78
2018-12-14T02:25:26.736Z,62.75
2018-12-14T02:30:33.266Z,63.32
2018-12-14T02:33:03.436Z,63.38
2018-12-14T02:35:31.988Z,63.00
2018-12-14T02:38:00.576Z,62.40
2018-12-14T02:40:31.341Z,62.50
2018-12-14T02:43:00.175Z,62.02
2018-12-14T02:45:30.150Z,62.28
2018-12-14T02:47:58.547Z,62.16
2018-12-14T02:50:28.398Z,62.09
2018-12-14T02:52:58.488Z,62.34
2018-12-14T02:55:28.841Z,62.58
2018-12-14T02:57:57.248Z,62.50
2018-12-14T03:00:25.749Z,62.81
2018-12-14T03:02:55.440Z,62.73
2018-12-14T03:05:24.380Z,62.74
2018-12-14T03:07:53.579Z,63.18
2018-12-14T03:10:24.092Z,62.49
2018-12-14T03:12:52.618Z,62.89
2018-12-14T03:15:23.304Z,62.48
2018-12-14T03:17:51.470Z,62.33
2018-12-14T03:20:20.665Z,62.69
2018-12-14T03:22:51.427Z,62.04
2018-12-14T03:25:20.445Z,61.38
2018-12-14T03:27:54.276Z,61.59
2018-12-14T03:30:28.779Z,61.42
2018-12-14T03:32:58.515Z,61.10
2018-12-14T03:35:27.511Z,60.99
2018-12-14T03:37:55.808Z,61.27
2018-12-14T03:40:24.477Z,61.31
2018-12-14T03:42:53.449Z,60.62
2018-12-14T03:45:23.019Z,60.79
2018-12-14T03:47:51.855Z,61.74
2018-12-14T03:50:20.572Z,61.01
2018-12-14T03:52:51.423Z,60.20
2018-12-14T03:55:21.072Z,60.49
2018-12-14T03:57:50.497Z,60.86
2018-12-14T04:00:23.064Z,60.93
2018-12-14T04:02:51.660Z,60.94
2018-12-14T04:05:19.865Z,60.56
2018-12-14T04:07:49.760Z,60.47
2018-12-14T04:10:19.019Z,60.35
2018-12-14T04:12:48.135Z,59.82
2018-12-14T04:15:16.960Z,59.42
2018-12-14T04:17:45.372Z,59.50
2018-12-14T04:20:14.874Z,59.11
2018-12-14T04:22:46.200Z,58.96
2018-12-14T04:25:17.207Z,59.89
2018-12-14T04:27:49.912Z,59.49
2018-12-14T04:30:22.851Z,59.16
2018-12-14T04:32:51.123Z,58.86
2018-12-14T04:35:19.627Z,58.91
2018-12-14T04:37:50.232Z,59.50
2018-12-14T04:40:18.654Z,58.80
2018-12-14T04:42:48.951Z,58.96
2018-12-14T04:45:17.746Z,59.33
2018-12-14T04:47:45.811Z,59.13
2018-12-14T04:50:14.796Z,58.90
2018-12-14T04:52:43.250Z,58.79
2018-12-14T04:55:11.785Z,58.37
2018-12-14T04:57:40.128Z,58.72
2018-12-14T05:00:09.504Z,58.69
2018-12-14T05:02:38.876Z,58.49
2018-12-14T05:05:07.663Z,58.28
2018-12-14T05:07:39.403Z,57.70
2018-12-14T05:10:09.435Z,58.27
2018-12-14T05:12:38.742Z,58.02
2018-12-14T05:15:08.168Z,58.27
2018-12-14T05:17:38.550Z,57.77
2018-12-14T05:20:09.392Z,56.97
2018-12-14T05:22:39.553Z,56.91
2018-12-14T05:25:09.050Z,56.59
2018-12-14T05:27:42.813Z,56.21
2018-12-14T05:30:17.499Z,56.32
2018-12-14T05:32:50.243Z,55.52
2018-12-14T05:35:28.054Z,54.83
2018-12-14T05:37:58.984Z,55.42
2018-12-14T05:40:29.920Z,55.40
2018-12-14T05:43:02.691Z,56.00
2018-12-14T05:45:43.752Z,55.72
2018-12-14T05:48:12.272Z,57.05
2018-12-14T05:50:52.096Z,57.55
2018-12-14T05:53:22.895Z,58.17
2018-12-14T05:55:51.725Z,57.96
2018-12-14T05:58:22.618Z,57.93
2018-12-14T06:00:57.250Z,57.92
2018-12-14T06:03:26.047Z,58.53
2018-12-14T06:05:54.526Z,58.17
2018-12-14T06:08:30.460Z,58.01
2018-12-14T06:11:02.582Z,57.76
2018-12-14T06:13:31.279Z,58.21
2018-12-14T06:16:00.599Z,58.68
2018-12-14T06:18:30.060Z,59.01
2018-12-14T06:21:02.108Z,59.45
2018-12-14T06:23:31.565Z,59.40
2018-12-14T06:26:05.144Z,58.96
2018-12-14T06:28:36.435Z,59.16
2018-12-14T06:31:13.265Z,59.20
2018-12-14T06:33:42.295Z,59.18
2018-12-14T06:36:13.277Z,59.22
2018-12-14T06:38:45.391Z,59.26
2018-12-14T06:41:30.755Z,58.76
2018-12-14T06:44:05.500Z,59.29
2018-12-14T06:46:36.765Z,58.96
2018-12-14T06:49:05.259Z,58.75
2018-12-14T06:51:35.434Z,58.93
2018-12-14T06:54:08.697Z,58.28
2018-12-14T06:56:37.452Z,58.25
2018-12-14T06:59:07.310Z,58.66
2018-12-14T07:01:59.214Z,58.43
2018-12-14T07:04:32.881Z,58.17
2018-12-14T07:08:14.539Z,57.63
2018-12-14T07:10:48.959Z,58.58
2018-12-14T07:13:21.845Z,58.89
2018-12-14T07:15:53.210Z,58.92
2018-12-14T07:18:38.643Z,59.12
2018-12-14T07:21:17.428Z,59.57
2018-12-14T07:23:50.535Z,59.44
2018-12-14T07:26:25.508Z,59.16
2018-12-14T07:28:54.564Z,59.82
2018-12-14T07:31:25.125Z,59.45
2018-12-14T07:33:59.484Z,59.34
2018-12-14T07:36:28.401Z,59.67
2018-12-14T07:38:59.640Z,59.69
2018-12-14T07:41:29.166Z,59.28
2018-12-14T07:44:14.373Z,59.04
2018-12-14T07:46:44.796Z,59.10
2018-12-14T07:49:18.900Z,59.27
2018-12-14T07:51:49.097Z,58.93
2018-12-14T07:54:20.140Z,59.10
2018-12-14T07:56:49.514Z,59.03
2018-12-14T07:59:23.091Z,58.71
2018-12-14T08:02:01.598Z,58.60
2018-12-14T08:04:32.292Z,58.90
2018-12-14T08:07:02.839Z,58.95
2018-12-14T08:09:32.932Z,59.09
2018-12-14T08:12:03.460Z,58.96
2018-12-14T08:15:11.439Z,59.16
2018-12-14T08:17:41.033Z,58.75
2018-12-14T08:20:10.189Z,58.84
2018-12-14T08:22:44.583Z,58.92
2018-12-14T08:25:13.538Z,58.84
2018-12-14T08:27:42.275Z,59.04
2018-12-14T08:30:15.403Z,58.56
2018-12-14T08:32:44.871Z,59.11
2018-12-14T08:35:13.575Z,59.63
2018-12-14T08:37:44.830Z,59.66
2018-12-14T08:40:13.226Z,59.34
2018-12-14T08:42:42.860Z,59.19
2018-12-14T08:45:27.267Z,59.50
2018-12-14T08:47:57.985Z,59.75
2018-12-14T08:50:29.300Z,59.29
2018-12-14T08:53:00.335Z,59.15
2018-12-14T08:55:28.931Z,59.42
2018-12-14T08:57:59.348Z,59.35
2018-12-14T09:00:31.107Z,59.00
2018-12-14T09:02:59.670Z,59.20
2018-12-14T09:05:35.606Z,58.88
2018-12-14T09:08:04.356Z,58.83
2018-12-14T09:10:33.257Z,58.62
2018-12-14T09:13:07.119Z,58.22
2018-12-14T09:15:40.177Z,58.14
2018-12-14T09:18:17.454Z,57.58
2018-12-14T09:20:49.455Z,57.38
2018-12-14T09:23:20.639Z,57.57
2018-12-14T09:25:48.694Z,57.79
2018-12-14T09:28:21.032Z,57.04
2018-12-14T09:30:52.666Z,56.88
2018-12-14T09:33:24.976Z,56.62
2018-12-14T09:35:53.489Z,56.51
2018-12-14T09:38:22.745Z,56.15
2018-12-14T09:41:01.131Z,56.41
2018-12-14T09:43:40.691Z,56.79
2018-12-14T09:46:15.401Z,56.88
2018-12-14T09:49:02.010Z,56.03
2018-12-14T09:51:33.245Z,56.59
2018-12-14T09:54:04.818Z,56.41
2018-12-14T09:56:33.756Z,56.62
2018-12-14T09:59:07.790Z,56.37
2018-12-14T10:01:45.225Z,56.22
2018-12-14T10:04:16.222Z,56.31
2018-12-14T10:06:47.333Z,56.11
2018-12-14T10:09:18.435Z,56.20
2018-12-14T10:11:48.051Z,55.44
2018-12-14T10:14:25.149Z,55.45
2018-12-14T10:18:56.622Z,55.32
2018-12-14T10:21:27.676Z,54.82
2018-12-14T10:23:57.166Z,55.19
2018-12-14T10:26:28.831Z,55.19
2018-12-14T10:31:59.857Z,54.98
2018-12-14T10:34:30.359Z,54.75
2018-12-14T10:37:00.135Z,54.83
2018-12-14T10:39:34.672Z,54.80
2018-12-14T10:42:03.470Z,54.83
2018-12-14T10:44:32.783Z,55.08
2018-12-14T10:47:01.686Z,54.73
2018-12-14T10:49:34.118Z,55.17
2018-12-14T10:52:06.118Z,54.54
2018-12-14T10:54:36.638Z,54.13
2018-12-14T10:57:04.823Z,54.79
2018-12-14T10:59:33.823Z,54.33
2018-12-14T11:02:04.451Z,54.36
2018-12-14T11:04:43.467Z,54.49
2018-12-14T11:07:18.945Z,53.74
2018-12-14T11:09:48.904Z,53.41
2018-12-14T11:12:20.798Z,53.52
2018-12-14T11:14:51.943Z,53.71
2018-12-14T11:17:30.779Z,52.91
2018-12-14T11:20:04.944Z,52.84
2018-12-14T11:22:41.367Z,52.46
2018-12-14T11:25:15.155Z,52.46
2018-12-14T11:27:48.291Z,53.17
2018-12-14T11:33:18.270Z,52.60
2018-12-14T11:35:55.195Z,52.58
2018-12-14T11:38:25.811Z,51.86
2018-12-14T11:40:56.772Z,51.73
2018-12-14T11:46:33.083Z,51.47
2018-12-14T11:49:06.593Z,51.71
2018-12-14T11:51:41.763Z,51.42
2018-12-14T11:54:11.862Z,51.79
2018-12-14T11:56:43.133Z,52.07
2018-12-14T11:59:17.150Z,51.67
2018-12-14T12:01:55.031Z,50.50
2018-12-14T12:04:28.746Z,50.16
2018-12-14T12:07:03.101Z,48.70
2018-12-14T12:12:21.433Z,48.83
2018-12-14T12:14:54.048Z,49.80
2018-12-14T12:17:24.640Z,50.33
2018-12-14T12:19:54.566Z,49.95
2018-12-14T12:22:27.048Z,49.69
2018-12-14T12:24:59.624Z,48.06
2018-12-14T12:27:29.702Z,48.93
2018-12-14T12:30:05.228Z,48.65
2018-12-14T12:32:50.630Z,48.17
2018-12-14T12:35:20.803Z,47.13
2018-12-14T12:38:20.593Z,47.21
2018-12-14T12:40:55.883Z,46.97
2018-12-14T12:43:26.017Z,47.96
2018-12-14T12:46:01.331Z,46.55
2018-12-14T12:48:40.854Z,47.22
2018-12-14T12:51:12.595Z,47.25
2018-12-14T12:53:44.256Z,47.24
2018-12-14T12:56:15.169Z,46.40
2018-12-14T12:58:45.271Z,46.05
2018-12-14T13:01:15.093Z,46.15
2018-12-14T13:03:53.614Z,46.26
2018-12-14T13:06:26.781Z,45.85
2018-12-14T13:08:56.910Z,44.64
2018-12-14T13:11:30.768Z,45.29
2018-12-14T13:14:00.641Z,45.01
2018-12-14T13:16:35.320Z,44.68
2018-12-14T13:19:04.644Z,45.04
2018-12-14T13:21:34.915Z,45.02
2018-12-14T13:24:04.307Z,44.81
2018-12-14T13:26:39.799Z,44.89
2018-12-14T13:29:09.076Z,44.71
2018-12-14T13:31:38.696Z,44.87
2018-12-14T13:34:07.162Z,44.33
2018-12-14T13:36:36.574Z,44.41
2018-12-14T13:39:09.275Z,44.56
2018-12-14T13:41:54.482Z,44.21
2018-12-14T13:44:46.593Z,44.55
2018-12-14T13:47:18.339Z,44.85
2018-12-14T13:49:46.708Z,44.47
2018-12-14T13:52:21.555Z,43.93
2018-12-14T13:54:59.397Z,44.38
2018-12-14T13:57:28.378Z,43.18
2018-12-14T13:59:58.683Z,43.24
2018-12-14T14:05:34.209Z,41.30
2018-12-14T14:08:02.875Z,41.77
2018-12-14T14:10:41.772Z,41.13
2018-12-14T14:13:13.122Z,41.20
2018-12-14T14:16:30.374Z,41.49
2018-12-14T14:19:15.272Z,41.41
2018-12-14T14:21:58.893Z,41.27
2018-12-14T14:24:32.436Z,42.04
2018-12-14T14:27:05.816Z,42.90
2018-12-14T14:29:45.754Z,44.00
2018-12-14T14:32:16.605Z,45.35
2018-12-14T14:34:47.491Z,46.81
2018-12-14T14:39:58.975Z,47.42
2018-12-14T14:42:28.289Z,47.70
2018-12-14T14:44:59.860Z,47.78
2018-12-14T14:47:30.535Z,48.34
2018-12-14T14:50:00.463Z,48.90
2018-12-14T14:52:31.879Z,48.37
2018-12-14T14:55:00.729Z,48.63
2018-12-14T14:57:33.701Z,48.88
2018-12-14T15:00:36.590Z,49.01
2018-12-14T15:03:05.289Z,46.84
2018-12-14T15:08:21.456Z,45.50
2018-12-14T15:10:53.588Z,45.17
2018-12-14T15:13:21.639Z,44.07
2018-12-14T15:15:56.905Z,44.08
2018-12-14T15:18:28.032Z,42.79
2018-12-14T15:20:56.528Z,42.80
2018-12-14T15:23:25.547Z,42.14
2018-12-14T15:26:05.605Z,42.94
2018-12-14T15:28:35.402Z,41.29
2018-12-14T15:31:04.558Z,41.71
2018-12-14T15:33:46.557Z,42.01
2018-12-14T15:36:18.432Z,41.45
2018-12-14T15:38:54.286Z,41.75
2018-12-14T15:41:25.618Z,41.56
2018-12-14T15:43:54.851Z,41.07
2018-12-14T15:46:23.642Z,41.74
2018-12-14T15:48:52.721Z,41.15
2018-12-14T15:51:21.261Z,41.03
2018-12-14T15:53:49.685Z,41.34
2018-12-14T15:56:20.131Z,39.98
2018-12-14T15:58:51.837Z,41.20
2018-12-14T16:01:22.671Z,41.24
2018-12-14T16:06:20.647Z,41.61
2018-12-14T16:08:58.455Z,41.50
2018-12-14T16:11:36.340Z,41.58
2018-12-14T16:14:16.787Z,41.21
2018-12-14T16:17:39.093Z,40.45
2018-12-14T16:20:22.598Z,41.14
2018-12-14T16:22:59.025Z,43.58
2018-12-14T16:25:29.914Z,45.28
2018-12-14T16:28:03.749Z,47.39
2018-12-14T16:30:35.957Z,48.43
2018-12-14T16:33:05.770Z,48.58
2018-12-14T16:35:35.794Z,48.84
2018-12-14T16:38:06.980Z,48.72
2018-12-14T16:40:37.003Z,48.39
2018-12-14T16:43:05.144Z,47.71
2018-12-14T16:45:35.125Z,48.80
2018-12-14T16:48:06.413Z,48.46
2018-12-14T16:50:46.608Z,49.21
2018-12-14T16:56:03.208Z,49.81
2018-12-14T16:58:37.281Z,50.17
2018-12-14T17:01:08.149Z,49.76
2018-12-14T17:03:38.831Z,49.83
2018-12-14T17:06:12.120Z,49.75
2018-12-14T17:08:43.135Z,50.06
2018-12-14T17:11:17.299Z,49.73
2018-12-14T17:13:46.423Z,49.21
2018-12-14T17:16:22.482Z,49.65
2018-12-14T17:18:53.428Z,50.56
2018-12-14T17:21:29.193Z,50.14
2018-12-14T17:23:59.248Z,49.64
2018-12-14T17:26:29.549Z,50.15
2018-12-14T17:28:58.352Z,49.82
2018-12-14T17:31:30.465Z,49.88
2018-12-14T17:33:59.881Z,50.50
2018-12-14T17:36:30.775Z,50.44
2018-12-14T17:39:01.509Z,50.77
2018-12-14T17:41:33.686Z,50.60
2018-12-14T17:44:07.953Z,50.56
2018-12-14T17:46:40.410Z,50.54
2018-12-14T17:49:19.474Z,50.30
2018-12-14T17:51:57.134Z,50.19
2018-12-14T17:54:29.301Z,50.15
2018-12-14T17:57:13.200Z,49.95
2018-12-14T17:59:45.640Z,50.14
2018-12-14T18:02:34.768Z,50.13
2018-12-14T18:07:57.622Z,49.88
2018-12-14T18:13:20.624Z,49.63
2018-12-14T18:15:53.773Z,50.40
2018-12-14T18:18:44.489Z,49.89
2018-12-14T18:21:16.590Z,49.38
2018-12-14T18:23:57.591Z,49.02
2018-12-14T18:26:35.103Z,48.98
2018-12-14T18:29:20.310Z,49.54
2018-12-14T18:32:02.178Z,49.87
2018-12-14T18:34:47.027Z,49.99
2018-12-14T18:37:20.924Z,49.80
2018-12-14T18:40:02.286Z,50.26
2018-12-14T18:42:36.807Z,49.88
2018-12-14T18:45:21.241Z,49.82
2018-12-14T18:48:17.412Z,49.29
2018-12-14T18:50:53.602Z,49.04
2018-12-14T18:53:41.149Z,49.40
2018-12-14T18:56:16.822Z,48.88
2018-12-14T18:58:46.066Z,48.46
2018-12-14T19:01:17.715Z,49.04
2018-12-14T19:03:51.015Z,48.13
2018-12-14T19:06:21.571Z,47.88
2018-12-14T19:08:53.279Z,47.58
2018-12-14T19:11:24.322Z,47.23
2018-12-14T19:14:00.024Z,47.64
2018-12-14T19:16:30.182Z,47.43
2018-12-14T19:19:11.002Z,46.99
2018-12-14T19:21:40.303Z,45.83
2018-12-14T19:24:09.249Z,45.65
2018-12-14T19:26:40.596Z,44.87
2018-12-14T19:29:10.476Z,43.84
2018-12-14T19:31:41.618Z,44.00
2018-12-14T19:34:11.551Z,43.98
2018-12-14T19:36:39.748Z,43.83
2018-12-14T19:39:19.425Z,43.66
2018-12-14T19:41:52.775Z,43.33
2018-12-14T19:44:24.321Z,42.98
2018-12-14T19:46:54.551Z,43.53
2018-12-14T19:49:31.019Z,43.57
2018-12-14T19:52:08.325Z,43.41
2018-12-14T19:54:41.504Z,42.45
2018-12-14T19:57:15.931Z,42.52
2018-12-14T19:59:44.546Z,42.22
2018-12-14T20:02:13.739Z,42.20
2018-12-14T20:04:45.347Z,42.34
2018-12-14T20:07:17.987Z,41.69
2018-12-14T20:09:47.670Z,42.28
2018-12-14T20:12:29.848Z,41.36
2018-12-14T20:15:01.070Z,41.51
2018-12-14T20:17:45.085Z,42.45
2018-12-14T20:20:23.849Z,42.45
2018-12-14T20:22:58.734Z,43.04
2018-12-14T20:25:43.216Z,42.23
2018-12-14T20:30:52.397Z,42.34
2018-12-14T20:33:24.764Z,43.11
2018-12-14T20:35:57.135Z,42.60
2018-12-14T20:38:27.953Z,42.89
2018-12-14T20:40:58.331Z,43.08
2018-12-14T20:43:27.397Z,42.82
2018-12-14T20:45:56.466Z,42.93
2018-12-14T20:48:27.603Z,43.03
2018-12-14T20:51:16.684Z,43.10
2018-12-14T20:56:35.650Z,42.94
2018-12-14T20:59:08.607Z,42.82
2018-12-14T21:01:41.805Z,43.15
2018-12-14T21:04:19.369Z,43.04
2018-12-14T21:06:50.031Z,42.35
2018-12-14T21:09:31.325Z,42.87
2018-12-14T21:12:03.592Z,42.69
2018-12-14T21:14:42.107Z,42.87
2018-12-14T21:17:12.500Z,42.80
2018-12-14T21:19:42.728Z,42.63
2018-12-14T21:22:15.261Z,42.42
2018-12-14T21:24:44.100Z,43.10
2018-12-14T21:27:16.129Z,42.07
2018-12-14T21:29:45.498Z,42.32
2018-12-14T21:32:14.081Z,42.10
2018-12-14T21:34:42.323Z,42.82
2018-12-14T21:37:12.782Z,42.52
2018-12-14T21:39:41.979Z,42.21
2018-12-14T21:42:15.967Z,42.35
2018-12-14T21:44:46.151Z,42.28
2018-12-14T21:47:16.607Z,42.27
2018-12-14T21:49:54.472Z,41.88
2018-12-14T21:52:24.623Z,41.61
2018-12-14T21:54:53.302Z,42.20
2018-12-14T21:57:23.781Z,41.52
2018-12-14T21:59:52.795Z,41.76
2018-12-14T22:02:22.728Z,42.21
2018-12-14T22:04:58.054Z,41.78
2018-12-14T22:07:27.690Z,42.00
2018-12-14T22:09:59.412Z,42.08
2018-12-14T22:12:27.797Z,41.63
2018-12-14T22:14:56.987Z,42.28
2018-12-14T22:17:30.012Z,42.46
2018-12-14T22:20:00.379Z,42.41
2018-12-14T22:22:33.609Z,42.06
2018-12-14T22:25:34.842Z,42.30
2018-12-14T22:28:10.833Z,41.56
2018-12-14T22:30:39.780Z,41.07
2018-12-14T22:33:09.869Z,41.90
2018-12-14T22:35:41.728Z,41.87
2018-12-14T22:38:13.244Z,42.05
2018-12-14T22:40:47.949Z,41.75
2018-12-14T22:43:26.446Z,41.72
2018-12-14T22:45:59.544Z,41.94
2018-12-14T22:48:54.042Z,42.01
2018-12-14T22:51:24.879Z,42.28
2018-12-14T22:53:54.938Z,42.18
2018-12-14T22:58:38.837Z,42.13
2018-12-14T23:01:09.041Z,42.13
2018-12-14T23:03:43.298Z,42.42
2018-12-14T23:06:18.532Z,42.51
2018-12-14T23:12:39.841Z,42.12
2018-12-14T23:15:15.078Z,41.86
2018-12-14T23:17:47.545Z,42.49
2018-12-14T23:20:17.695Z,41.76
2018-12-14T23:22:48.625Z,42.10
2018-12-14T23:25:19.369Z,42.22
2018-12-14T23:27:58.563Z,41.98
2018-12-14T23:30:36.733Z,41.71
2018-12-14T23:33:10.086Z,41.95
2018-12-14T23:35:47.805Z,41.81
2018-12-14T23:38:19.126Z,41.33
2018-12-14T23:40:54.201Z,42.02
2018-12-14T23:43:31.762Z,42.04
2018-12-14T23:46:03.626Z,41.75
2018-12-14T23:48:37.501Z,41.55
2018-12-14T23:51:07.248Z,41.13
2018-12-14T23:53:41.441Z,41.85
2018-12-14T23:56:11.626Z,41.77
2018-12-14T23:58:42.756Z,41.64
